sensor_id;sensor_type;location;lat;lon;timestamp;P1;durP1;ratioP1;P2;durP2;ratioP2
29340;SDS011;16337;59.536;13.468;2022-08-03T00:02:25;1.55;;;0.70;;
29340;SDS011;16337;59.536;13.468;2022-08-03T00:04:51;0.60;;;0.60;;
29340;SDS011;16337;59.536;13.468;2022-08-03T00:07:16;0.40;;;0.40;;
29340;SDS011;16337;59.536;13.468;2022-08-03T00:09:42;0.30;;;0.30;;
29340;SDS011;16337;59.536;13.468;2022-08-03T00:12:08;0.40;;;0.40;;
29340;SDS011;16337;59.536;13.468;2022-08-03T00:14:34;0.40;;;0.40;;
29340;SDS011;16337;59.536;13.468;2022-08-03T00:16:59;0.40;;;0.40;;
29340;SDS011;16337;59.536;13.468;2022-08-03T00:19:25;0.40;;;0.40;;
29340;SDS011;16337;59.536;13.468;2022-08-03T00:21:51;0.38;;;0.38;;
29340;SDS011;16337;59.536;13.468;2022-08-03T00:24:17;0.40;;;0.40;;
29340;SDS011;16337;59.536;13.468;2022-08-03T00:26:43;2.15;;;1.48;;
29340;SDS011;16337;59.536;13.468;2022-08-03T00:29:09;0.32;;;0.32;;
29340;SDS011;16337;59.536;13.468;2022-08-03T00:31:35;0.40;;;0.40;;
29340;SDS011;16337;59.536;13.468;2022-08-03T00:34:01;1.20;;;0.60;;
29340;SDS011;16337;59.536;13.468;2022-08-03T00:36:26;0.40;;;0.40;;
29340;SDS011;16337;59.536;13.468;2022-08-03T00:38:52;0.40;;;0.40;;
29340;SDS011;16337;59.536;13.468;2022-08-03T00:41:18;0.40;;;0.40;;
29340;SDS011;16337;59.536;13.468;2022-08-03T00:43:44;0.40;;;0.40;;
29340;SDS011;16337;59.536;13.468;2022-08-03T00:46:11;0.40;;;0.40;;
29340;SDS011;16337;59.536;13.468;2022-08-03T00:48:37;0.57;;;0.57;;
29340;SDS011;16337;59.536;13.468;2022-08-03T00:51:03;0.50;;;0.50;;
29340;SDS011;16337;59.536;13.468;2022-08-03T00:53:30;0.40;;;0.40;;
29340;SDS011;16337;59.536;13.468;2022-08-03T00:55:56;0.40;;;0.40;;
29340;SDS011;16337;59.536;13.468;2022-08-03T00:58:22;0.40;;;0.40;;
29340;SDS011;16337;59.536;13.468;2022-08-03T01:00:48;0.38;;;0.38;;
29340;SDS011;16337;59.536;13.468;2022-08-03T01:03:14;0.30;;;0.30;;
29340;SDS011;16337;59.536;13.468;2022-08-03T01:14:38;0.40;;;0.40;;
29340;SDS011;16337;59.536;13.468;2022-08-03T01:19:45;0.40;;;0.40;;
29340;SDS011;16337;59.536;13.468;2022-08-03T01:25:13;0.30;;;0.30;;
29340;SDS011;16337;59.536;13.468;2022-08-03T01:30:26;0.50;;;0.50;;
29340;SDS011;16337;59.536;13.468;2022-08-03T01:33:02;1.02;;;1.00;;
29340;SDS011;16337;59.536;13.468;2022-08-03T01:38:02;0.30;;;0.30;;
29340;SDS011;16337;59.536;13.468;2022-08-03T01:40:30;0.40;;;0.40;;
29340;SDS011;16337;59.536;13.468;2022-08-03T01:43:01;0.40;;;0.40;;
29340;SDS011;16337;59.536;13.468;2022-08-03T01:45:28;0.30;;;0.30;;
29340;SDS011;16337;59.536;13.468;2022-08-03T01:47:55;0.63;;;0.63;;
29340;SDS011;16337;59.536;13.468;2022-08-03T01:50:23;0.68;;;0.50;;
29340;SDS011;16337;59.536;13.468;2022-08-03T01:52:52;18.25;;;1.00;;
29340;SDS011;16337;59.536;13.468;2022-08-03T01:55:20;0.38;;;0.38;;
29340;SDS011;16337;59.536;13.468;2022-08-03T01:57:48;0.30;;;0.30;;
29340;SDS011;16337;59.536;13.468;2022-08-03T02:00:15;0.50;;;0.50;;
29340;SDS011;16337;59.536;13.468;2022-08-03T02:02:41;0.40;;;0.40;;
29340;SDS011;16337;59.536;13.468;2022-08-03T02:05:10;0.40;;;0.40;;
29340;SDS011;16337;59.536;13.468;2022-08-03T02:07:37;0.30;;;0.30;;
29340;SDS011;16337;59.536;13.468;2022-08-03T02:10:06;3.55;;;1.33;;
29340;SDS011;16337;59.536;13.468;2022-08-03T02:12:33;0.40;;;0.40;;
29340;SDS011;16337;59.536;13.468;2022-08-03T02:15:01;0.40;;;0.40;;
29340;SDS011;16337;59.536;13.468;2022-08-03T02:17:27;0.40;;;0.40;;
29340;SDS011;16337;59.536;13.468;2022-08-03T02:19:56;0.40;;;0.40;;
29340;SDS011;16337;59.536;13.468;2022-08-03T02:22:24;0.40;;;0.40;;
29340;SDS011;16337;59.536;13.468;2022-08-03T02:24:50;0.40;;;0.40;;
29340;SDS011;16337;59.536;13.468;2022-08-03T02:27:18;0.30;;;0.30;;
29340;SDS011;16337;59.536;13.468;2022-08-03T02:29:47;0.40;;;0.40;;
29340;SDS011;16337;59.536;13.468;2022-08-03T02:32:19;0.75;;;0.75;;
29340;SDS011;16337;59.536;13.468;2022-08-03T02:34:50;0.40;;;0.40;;
29340;SDS011;16337;59.536;13.468;2022-08-03T02:37:18;0.70;;;0.70;;
29340;SDS011;16337;59.536;13.468;2022-08-03T02:39:47;0.38;;;0.38;;
29340;SDS011;16337;59.536;13.468;2022-08-03T02:42:19;0.50;;;0.50;;
29340;SDS011;16337;59.536;13.468;2022-08-03T02:44:47;0.57;;;0.57;;
29340;SDS011;16337;59.536;13.468;2022-08-03T02:47:15;0.55;;;0.55;;
29340;SDS011;16337;59.536;13.468;2022-08-03T02:49:44;0.30;;;0.30;;
29340;SDS011;16337;59.536;13.468;2022-08-03T02:52:12;0.45;;;0.45;;
29340;SDS011;16337;59.536;13.468;2022-08-03T02:54:39;0.43;;;0.43;;
29340;SDS011;16337;59.536;13.468;2022-08-03T02:57:08;1.27;;;0.73;;
29340;SDS011;16337;59.536;13.468;2022-08-03T02:59:35;0.40;;;0.40;;
29340;SDS011;16337;59.536;13.468;2022-08-03T03:02:03;0.55;;;0.55;;
29340;SDS011;16337;59.536;13.468;2022-08-03T03:04:29;0.70;;;0.57;;
29340;SDS011;16337;59.536;13.468;2022-08-03T03:06:55;0.45;;;0.45;;
29340;SDS011;16337;59.536;13.468;2022-08-03T03:09:22;0.30;;;0.30;;
29340;SDS011;16337;59.536;13.468;2022-08-03T03:11:48;6.38;;;0.70;;
29340;SDS011;16337;59.536;13.468;2022-08-03T03:14:16;0.30;;;0.30;;
29340;SDS011;16337;59.536;13.468;2022-08-03T03:16:43;0.60;;;0.60;;
29340;SDS011;16337;59.536;13.468;2022-08-03T03:19:10;0.50;;;0.50;;
29340;SDS011;16337;59.536;13.468;2022-08-03T03:21:38;14.15;;;0.68;;
29340;SDS011;16337;59.536;13.468;2022-08-03T03:24:04;0.45;;;0.45;;
29340;SDS011;16337;59.536;13.468;2022-08-03T03:26:32;0.52;;;0.50;;
29340;SDS011;16337;59.536;13.468;2022-08-03T03:28:58;1.25;;;0.70;;
29340;SDS011;16337;59.536;13.468;2022-08-03T03:31:26;0.55;;;0.43;;
29340;SDS011;16337;59.536;13.468;2022-08-03T03:33:51;0.47;;;0.47;;
29340;SDS011;16337;59.536;13.468;2022-08-03T03:36:17;0.68;;;0.68;;
29340;SDS011;16337;59.536;13.468;2022-08-03T03:38:43;0.40;;;0.40;;
29340;SDS011;16337;59.536;13.468;2022-08-03T03:41:09;0.40;;;0.40;;
29340;SDS011;16337;59.536;13.468;2022-08-03T03:43:35;0.60;;;0.60;;
29340;SDS011;16337;59.536;13.468;2022-08-03T03:46:01;0.95;;;0.70;;
29340;SDS011;16337;59.536;13.468;2022-08-03T03:48:27;0.70;;;0.70;;
29340;SDS011;16337;59.536;13.468;2022-08-03T03:50:53;0.35;;;0.35;;
29340;SDS011;16337;59.536;13.468;2022-08-03T03:53:19;0.38;;;0.38;;
29340;SDS011;16337;59.536;13.468;2022-08-03T03:55:45;0.55;;;0.55;;
29340;SDS011;16337;59.536;13.468;2022-08-03T03:58:10;0.60;;;0.60;;
29340;SDS011;16337;59.536;13.468;2022-08-03T04:00:36;0.57;;;0.57;;
29340;SDS011;16337;59.536;13.468;2022-08-03T04:03:02;0.35;;;0.35;;
29340;SDS011;16337;59.536;13.468;2022-08-03T04:05:28;0.30;;;0.30;;
29340;SDS011;16337;59.536;13.468;2022-08-03T04:08:16;0.30;;;0.30;;
29340;SDS011;16337;59.536;13.468;2022-08-03T04:13:43;0.45;;;0.45;;
29340;SDS011;16337;59.536;13.468;2022-08-03T04:16:20;0.28;;;0.28;;
29340;SDS011;16337;59.536;13.468;2022-08-03T04:18:53;0.70;;;0.68;;
29340;SDS011;16337;59.536;13.468;2022-08-03T04:21:23;0.30;;;0.30;;
29340;SDS011;16337;59.536;13.468;2022-08-03T04:23:54;0.52;;;0.52;;
29340;SDS011;16337;59.536;13.468;2022-08-03T04:26:23;0.77;;;0.77;;
29340;SDS011;16337;59.536;13.468;2022-08-03T04:28:53;0.40;;;0.40;;
29340;SDS011;16337;59.536;13.468;2022-08-03T04:31:22;0.40;;;0.40;;
29340;SDS011;16337;59.536;13.468;2022-08-03T04:33:49;0.30;;;0.30;;
29340;SDS011;16337;59.536;13.468;2022-08-03T04:36:18;0.43;;;0.43;;
29340;SDS011;16337;59.536;13.468;2022-08-03T04:39:00;0.57;;;0.57;;
29340;SDS011;16337;59.536;13.468;2022-08-03T04:41:38;0.35;;;0.35;;
29340;SDS011;16337;59.536;13.468;2022-08-03T04:44:05;0.85;;;0.60;;
29340;SDS011;16337;59.536;13.468;2022-08-03T04:46:33;0.52;;;0.52;;
29340;SDS011;16337;59.536;13.468;2022-08-03T04:49:02;0.40;;;0.40;;
29340;SDS011;16337;59.536;13.468;2022-08-03T04:51:29;0.63;;;0.57;;
29340;SDS011;16337;59.536;13.468;2022-08-03T04:53:56;0.38;;;0.38;;
29340;SDS011;16337;59.536;13.468;2022-08-03T04:56:21;0.52;;;0.52;;
29340;SDS011;16337;59.536;13.468;2022-08-03T04:58:47;1.40;;;1.30;;
29340;SDS011;16337;59.536;13.468;2022-08-03T05:01:13;0.82;;;0.80;;
29340;SDS011;16337;59.536;13.468;2022-08-03T05:03:40;0.50;;;0.50;;
29340;SDS011;16337;59.536;13.468;2022-08-03T05:06:06;0.60;;;0.60;;
29340;SDS011;16337;59.536;13.468;2022-08-03T05:08:31;4.32;;;0.82;;
29340;SDS011;16337;59.536;13.468;2022-08-03T05:10:57;0.50;;;0.50;;
29340;SDS011;16337;59.536;13.468;2022-08-03T05:13:23;0.60;;;0.60;;
29340;SDS011;16337;59.536;13.468;2022-08-03T05:15:48;1.33;;;0.93;;
29340;SDS011;16337;59.536;13.468;2022-08-03T05:18:14;0.60;;;0.60;;
29340;SDS011;16337;59.536;13.468;2022-08-03T05:20:40;0.40;;;0.40;;
29340;SDS011;16337;59.536;13.468;2022-08-03T05:23:06;0.32;;;0.32;;
29340;SDS011;16337;59.536;13.468;2022-08-03T05:25:32;0.57;;;0.57;;
29340;SDS011;16337;59.536;13.468;2022-08-03T05:27:57;0.40;;;0.40;;
29340;SDS011;16337;59.536;13.468;2022-08-03T05:30:23;0.57;;;0.52;;
29340;SDS011;16337;59.536;13.468;2022-08-03T05:32:49;0.30;;;0.30;;
29340;SDS011;16337;59.536;13.468;2022-08-03T05:35:14;3.30;;;0.93;;
29340;SDS011;16337;59.536;13.468;2022-08-03T05:37:40;0.50;;;0.50;;
29340;SDS011;16337;59.536;13.468;2022-08-03T05:40:06;0.70;;;0.70;;
29340;SDS011;16337;59.536;13.468;2022-08-03T05:42:32;0.47;;;0.45;;
29340;SDS011;16337;59.536;13.468;2022-08-03T05:45:02;0.40;;;0.40;;
29340;SDS011;16337;59.536;13.468;2022-08-03T05:47:41;0.73;;;0.73;;
29340;SDS011;16337;59.536;13.468;2022-08-03T05:50:08;0.60;;;0.60;;
29340;SDS011;16337;59.536;13.468;2022-08-03T05:52:35;0.50;;;0.50;;
29340;SDS011;16337;59.536;13.468;2022-08-03T05:55:02;1.23;;;0.73;;
29340;SDS011;16337;59.536;13.468;2022-08-03T05:57:33;8.55;;;0.90;;
29340;SDS011;16337;59.536;13.468;2022-08-03T06:00:03;0.77;;;0.77;;
29340;SDS011;16337;59.536;13.468;2022-08-03T06:02:31;0.30;;;0.30;;
29340;SDS011;16337;59.536;13.468;2022-08-03T06:04:57;0.40;;;0.40;;
29340;SDS011;16337;59.536;13.468;2022-08-03T06:07:22;0.50;;;0.50;;
29340;SDS011;16337;59.536;13.468;2022-08-03T06:09:48;0.50;;;0.50;;
29340;SDS011;16337;59.536;13.468;2022-08-03T06:12:14;0.30;;;0.30;;
29340;SDS011;16337;59.536;13.468;2022-08-03T06:14:40;0.63;;;0.63;;
29340;SDS011;16337;59.536;13.468;2022-08-03T06:17:05;0.70;;;0.70;;
29340;SDS011;16337;59.536;13.468;2022-08-03T06:19:32;0.57;;;0.45;;
29340;SDS011;16337;59.536;13.468;2022-08-03T06:21:57;1.52;;;0.50;;
29340;SDS011;16337;59.536;13.468;2022-08-03T06:24:23;0.40;;;0.40;;
29340;SDS011;16337;59.536;13.468;2022-08-03T06:26:49;0.30;;;0.30;;
29340;SDS011;16337;59.536;13.468;2022-08-03T06:29:14;0.65;;;0.65;;
29340;SDS011;16337;59.536;13.468;2022-08-03T06:31:40;0.93;;;0.60;;
29340;SDS011;16337;59.536;13.468;2022-08-03T06:34:06;0.47;;;0.47;;
29340;SDS011;16337;59.536;13.468;2022-08-03T06:36:31;1.63;;;0.90;;
29340;SDS011;16337;59.536;13.468;2022-08-03T06:38:58;0.55;;;0.55;;
29340;SDS011;16337;59.536;13.468;2022-08-03T06:41:24;0.57;;;0.57;;
29340;SDS011;16337;59.536;13.468;2022-08-03T06:43:50;0.30;;;0.30;;
29340;SDS011;16337;59.536;13.468;2022-08-03T06:46:16;2.95;;;1.08;;
29340;SDS011;16337;59.536;13.468;2022-08-03T06:48:42;1.30;;;1.00;;
29340;SDS011;16337;59.536;13.468;2022-08-03T06:51:08;0.50;;;0.50;;
29340;SDS011;16337;59.536;13.468;2022-08-03T06:53:34;0.38;;;0.38;;
29340;SDS011;16337;59.536;13.468;2022-08-03T06:56:00;0.50;;;0.50;;
29340;SDS011;16337;59.536;13.468;2022-08-03T06:58:26;0.30;;;0.30;;
29340;SDS011;16337;59.536;13.468;2022-08-03T07:00:51;0.45;;;0.45;;
29340;SDS011;16337;59.536;13.468;2022-08-03T07:03:17;1.17;;;1.08;;
29340;SDS011;16337;59.536;13.468;2022-08-03T07:05:43;0.43;;;0.43;;
29340;SDS011;16337;59.536;13.468;2022-08-03T07:08:12;0.75;;;0.70;;
29340;SDS011;16337;59.536;13.468;2022-08-03T07:10:38;0.50;;;0.50;;
29340;SDS011;16337;59.536;13.468;2022-08-03T07:13:04;0.93;;;0.63;;
29340;SDS011;16337;59.536;13.468;2022-08-03T07:15:30;0.30;;;0.30;;
29340;SDS011;16337;59.536;13.468;2022-08-03T07:17:56;0.55;;;0.55;;
29340;SDS011;16337;59.536;13.468;2022-08-03T07:20:22;0.55;;;0.55;;
29340;SDS011;16337;59.536;13.468;2022-08-03T07:22:48;0.73;;;0.73;;
29340;SDS011;16337;59.536;13.468;2022-08-03T07:25:14;0.95;;;0.70;;
29340;SDS011;16337;59.536;13.468;2022-08-03T07:27:43;0.32;;;0.32;;
29340;SDS011;16337;59.536;13.468;2022-08-03T07:30:10;1.13;;;0.82;;
29340;SDS011;16337;59.536;13.468;2022-08-03T07:32:36;0.30;;;0.30;;
29340;SDS011;16337;59.536;13.468;2022-08-03T07:35:02;0.60;;;0.60;;
29340;SDS011;16337;59.536;13.468;2022-08-03T07:37:29;0.47;;;0.47;;
29340;SDS011;16337;59.536;13.468;2022-08-03T07:39:55;0.28;;;0.28;;
29340;SDS011;16337;59.536;13.468;2022-08-03T07:42:21;0.40;;;0.40;;
29340;SDS011;16337;59.536;13.468;2022-08-03T07:44:49;0.45;;;0.45;;
29340;SDS011;16337;59.536;13.468;2022-08-03T07:47:18;0.30;;;0.30;;
29340;SDS011;16337;59.536;13.468;2022-08-03T07:49:46;0.30;;;0.30;;
29340;SDS011;16337;59.536;13.468;2022-08-03T07:52:12;0.32;;;0.32;;
29340;SDS011;16337;59.536;13.468;2022-08-03T07:54:56;0.30;;;0.30;;
29340;SDS011;16337;59.536;13.468;2022-08-03T07:57:22;0.40;;;0.40;;
29340;SDS011;16337;59.536;13.468;2022-08-03T07:59:48;0.30;;;0.30;;
29340;SDS011;16337;59.536;13.468;2022-08-03T08:02:13;0.63;;;0.63;;
29340;SDS011;16337;59.536;13.468;2022-08-03T08:04:39;0.40;;;0.40;;
29340;SDS011;16337;59.536;13.468;2022-08-03T08:07:05;0.45;;;0.45;;
29340;SDS011;16337;59.536;13.468;2022-08-03T08:09:31;0.50;;;0.50;;
29340;SDS011;16337;59.536;13.468;2022-08-03T08:11:58;0.30;;;0.30;;
29340;SDS011;16337;59.536;13.468;2022-08-03T08:14:23;0.20;;;0.20;;
29340;SDS011;16337;59.536;13.468;2022-08-03T08:16:49;0.30;;;0.30;;
29340;SDS011;16337;59.536;13.468;2022-08-03T08:19:15;0.50;;;0.50;;
29340;SDS011;16337;59.536;13.468;2022-08-03T08:21:42;0.20;;;0.20;;
29340;SDS011;16337;59.536;13.468;2022-08-03T08:24:08;0.65;;;0.50;;
29340;SDS011;16337;59.536;13.468;2022-08-03T08:26:34;0.70;;;0.70;;
29340;SDS011;16337;59.536;13.468;2022-08-03T08:29:00;0.60;;;0.60;;
29340;SDS011;16337;59.536;13.468;2022-08-03T08:31:26;1.77;;;1.45;;
29340;SDS011;16337;59.536;13.468;2022-08-03T08:33:52;0.68;;;0.68;;
29340;SDS011;16337;59.536;13.468;2022-08-03T08:36:17;0.40;;;0.40;;
29340;SDS011;16337;59.536;13.468;2022-08-03T08:38:43;0.50;;;0.50;;
29340;SDS011;16337;59.536;13.468;2022-08-03T08:41:09;0.68;;;0.68;;
29340;SDS011;16337;59.536;13.468;2022-08-03T08:43:36;2.05;;;0.55;;
29340;SDS011;16337;59.536;13.468;2022-08-03T08:46:02;0.55;;;0.55;;
29340;SDS011;16337;59.536;13.468;2022-08-03T08:48:32;0.30;;;0.30;;
29340;SDS011;16337;59.536;13.468;2022-08-03T08:51:00;0.38;;;0.38;;
29340;SDS011;16337;59.536;13.468;2022-08-03T08:53:27;0.75;;;0.50;;
29340;SDS011;16337;59.536;13.468;2022-08-03T08:55:59;0.50;;;0.50;;
29340;SDS011;16337;59.536;13.468;2022-08-03T08:58:28;0.47;;;0.47;;
29340;SDS011;16337;59.536;13.468;2022-08-03T09:00:56;0.20;;;0.20;;
29340;SDS011;16337;59.536;13.468;2022-08-03T09:03:22;0.30;;;0.30;;
29340;SDS011;16337;59.536;13.468;2022-08-03T09:05:48;0.30;;;0.30;;
29340;SDS011;16337;59.536;13.468;2022-08-03T09:08:13;0.52;;;0.30;;
29340;SDS011;16337;59.536;13.468;2022-08-03T09:10:40;2.67;;;0.52;;
29340;SDS011;16337;59.536;13.468;2022-08-03T09:13:05;0.40;;;0.40;;
29340;SDS011;16337;59.536;13.468;2022-08-03T09:15:32;0.30;;;0.30;;
29340;SDS011;16337;59.536;13.468;2022-08-03T09:17:59;0.32;;;0.32;;
29340;SDS011;16337;59.536;13.468;2022-08-03T09:20:27;0.30;;;0.30;;
29340;SDS011;16337;59.536;13.468;2022-08-03T09:22:59;0.57;;;0.57;;
29340;SDS011;16337;59.536;13.468;2022-08-03T09:25:42;0.50;;;0.50;;
29340;SDS011;16337;59.536;13.468;2022-08-03T09:28:11;0.30;;;0.30;;
29340;SDS011;16337;59.536;13.468;2022-08-03T09:30:42;0.28;;;0.28;;
29340;SDS011;16337;59.536;13.468;2022-08-03T09:33:10;0.22;;;0.22;;
29340;SDS011;16337;59.536;13.468;2022-08-03T09:35:44;0.20;;;0.20;;
29340;SDS011;16337;59.536;13.468;2022-08-03T09:38:18;0.20;;;0.20;;
29340;SDS011;16337;59.536;13.468;2022-08-03T09:40:50;0.30;;;0.30;;
29340;SDS011;16337;59.536;13.468;2022-08-03T09:43:17;0.20;;;0.20;;
29340;SDS011;16337;59.536;13.468;2022-08-03T09:45:43;0.22;;;0.22;;
29340;SDS011;16337;59.536;13.468;2022-08-03T09:48:19;0.25;;;0.25;;
29340;SDS011;16337;59.536;13.468;2022-08-03T09:50:49;0.45;;;0.45;;
29340;SDS011;16337;59.536;13.468;2022-08-03T09:53:15;0.30;;;0.30;;
29340;SDS011;16337;59.536;13.468;2022-08-03T09:58:21;0.30;;;0.30;;
29340;SDS011;16337;59.536;13.468;2022-08-03T10:01:01;0.30;;;0.30;;
29340;SDS011;16337;59.536;13.468;2022-08-03T10:03:32;0.20;;;0.20;;
29340;SDS011;16337;59.536;13.468;2022-08-03T10:06:13;0.40;;;0.40;;
29340;SDS011;16337;59.536;13.468;2022-08-03T10:08:39;0.30;;;0.30;;
29340;SDS011;16337;59.536;13.468;2022-08-03T10:11:05;0.50;;;0.50;;
29340;SDS011;16337;59.536;13.468;2022-08-03T10:13:30;0.40;;;0.40;;
29340;SDS011;16337;59.536;13.468;2022-08-03T10:15:57;0.40;;;0.40;;
29340;SDS011;16337;59.536;13.468;2022-08-03T10:18:23;0.43;;;0.43;;
29340;SDS011;16337;59.536;13.468;2022-08-03T10:20:50;0.40;;;0.40;;
29340;SDS011;16337;59.536;13.468;2022-08-03T10:23:18;0.35;;;0.35;;
29340;SDS011;16337;59.536;13.468;2022-08-03T10:25:46;0.40;;;0.40;;
29340;SDS011;16337;59.536;13.468;2022-08-03T10:28:14;0.40;;;0.40;;
29340;SDS011;16337;59.536;13.468;2022-08-03T10:30:43;0.77;;;0.70;;
29340;SDS011;16337;59.536;13.468;2022-08-03T10:33:17;1.75;;;0.55;;
29340;SDS011;16337;59.536;13.468;2022-08-03T10:35:51;0.50;;;0.50;;
29340;SDS011;16337;59.536;13.468;2022-08-03T10:38:21;0.32;;;0.32;;
29340;SDS011;16337;59.536;13.468;2022-08-03T10:40:52;0.73;;;0.60;;
29340;SDS011;16337;59.536;13.468;2022-08-03T10:45:49;0.32;;;0.32;;
29340;SDS011;16337;59.536;13.468;2022-08-03T10:48:16;0.45;;;0.45;;
29340;SDS011;16337;59.536;13.468;2022-08-03T10:50:43;0.98;;;0.47;;
29340;SDS011;16337;59.536;13.468;2022-08-03T10:53:10;1.20;;;0.70;;
29340;SDS011;16337;59.536;13.468;2022-08-03T10:55:39;0.40;;;0.40;;
29340;SDS011;16337;59.536;13.468;2022-08-03T11:01:16;0.30;;;0.30;;
29340;SDS011;16337;59.536;13.468;2022-08-03T11:06:19;0.65;;;0.65;;
29340;SDS011;16337;59.536;13.468;2022-08-03T11:08:46;0.60;;;0.50;;
29340;SDS011;16337;59.536;13.468;2022-08-03T11:16:47;0.47;;;0.47;;
29340;SDS011;16337;59.536;13.468;2022-08-03T11:19:15;0.77;;;0.77;;
29340;SDS011;16337;59.536;13.468;2022-08-03T11:37:36;0.88;;;0.88;;
29340;SDS011;16337;59.536;13.468;2022-08-03T11:46:04;2.58;;;1.63;;
29340;SDS011;16337;59.536;13.468;2022-08-03T11:48:36;0.70;;;0.70;;
29340;SDS011;16337;59.536;13.468;2022-08-03T11:51:04;0.55;;;0.55;;
29340;SDS011;16337;59.536;13.468;2022-08-03T11:53:32;0.70;;;0.70;;
29340;SDS011;16337;59.536;13.468;2022-08-03T11:55:59;0.65;;;0.65;;
29340;SDS011;16337;59.536;13.468;2022-08-03T11:58:26;0.75;;;0.50;;
29340;SDS011;16337;59.536;13.468;2022-08-03T12:00:53;0.50;;;0.50;;
29340;SDS011;16337;59.536;13.468;2022-08-03T12:03:31;0.43;;;0.43;;
29340;SDS011;16337;59.536;13.468;2022-08-03T12:05:59;0.45;;;0.45;;
29340;SDS011;16337;59.536;13.468;2022-08-03T12:10:52;0.57;;;0.57;;
29340;SDS011;16337;59.536;13.468;2022-08-03T12:13:19;3.22;;;0.95;;
29340;SDS011;16337;59.536;13.468;2022-08-03T12:15:51;0.50;;;0.50;;
29340;SDS011;16337;59.536;13.468;2022-08-03T12:18:18;0.65;;;0.65;;
29340;SDS011;16337;59.536;13.468;2022-08-03T12:20:46;0.50;;;0.50;;
29340;SDS011;16337;59.536;13.468;2022-08-03T12:23:12;1.52;;;0.93;;
29340;SDS011;16337;59.536;13.468;2022-08-03T12:25:39;0.60;;;0.60;;
29340;SDS011;16337;59.536;13.468;2022-08-03T12:30:44;1.00;;;0.52;;
29340;SDS011;16337;59.536;13.468;2022-08-03T12:33:12;0.77;;;0.75;;
29340;SDS011;16337;59.536;13.468;2022-08-03T12:35:44;0.57;;;0.55;;
29340;SDS011;16337;59.536;13.468;2022-08-03T12:38:11;0.52;;;0.52;;
29340;SDS011;16337;59.536;13.468;2022-08-03T12:40:37;0.60;;;0.60;;
29340;SDS011;16337;59.536;13.468;2022-08-03T12:43:10;1.10;;;0.65;;
29340;SDS011;16337;59.536;13.468;2022-08-03T12:45:37;0.75;;;0.75;;
29340;SDS011;16337;59.536;13.468;2022-08-03T12:48:06;1.52;;;1.42;;
29340;SDS011;16337;59.536;13.468;2022-08-03T12:50:35;0.63;;;0.63;;
29340;SDS011;16337;59.536;13.468;2022-08-03T12:53:03;0.82;;;0.82;;
29340;SDS011;16337;59.536;13.468;2022-08-03T12:55:34;0.50;;;0.50;;
29340;SDS011;16337;59.536;13.468;2022-08-03T12:58:05;1.95;;;1.10;;
29340;SDS011;16337;59.536;13.468;2022-08-03T13:00:34;0.98;;;0.88;;
29340;SDS011;16337;59.536;13.468;2022-08-03T13:03:01;2.20;;;1.50;;
29340;SDS011;16337;59.536;13.468;2022-08-03T13:05:29;0.82;;;0.68;;
29340;SDS011;16337;59.536;13.468;2022-08-03T13:07:55;0.85;;;0.73;;
29340;SDS011;16337;59.536;13.468;2022-08-03T13:10:32;0.50;;;0.50;;
29340;SDS011;16337;59.536;13.468;2022-08-03T13:12:59;0.40;;;0.40;;
29340;SDS011;16337;59.536;13.468;2022-08-03T13:15:27;0.90;;;0.60;;
29340;SDS011;16337;59.536;13.468;2022-08-03T13:17:56;2.35;;;1.58;;
29340;SDS011;16337;59.536;13.468;2022-08-03T13:20:22;0.55;;;0.55;;
29340;SDS011;16337;59.536;13.468;2022-08-03T13:22:49;0.93;;;0.63;;
29340;SDS011;16337;59.536;13.468;2022-08-03T13:25:15;1.63;;;1.20;;
29340;SDS011;16337;59.536;13.468;2022-08-03T13:27:41;0.60;;;0.60;;
29340;SDS011;16337;59.536;13.468;2022-08-03T13:30:08;2.38;;;1.15;;
29340;SDS011;16337;59.536;13.468;2022-08-03T13:32:34;0.50;;;0.50;;
29340;SDS011;16337;59.536;13.468;2022-08-03T13:35:00;1.30;;;1.20;;
29340;SDS011;16337;59.536;13.468;2022-08-03T13:37:27;1.25;;;0.70;;
29340;SDS011;16337;59.536;13.468;2022-08-03T13:39:53;1.55;;;1.25;;
29340;SDS011;16337;59.536;13.468;2022-08-03T13:42:19;1.23;;;1.08;;
29340;SDS011;16337;59.536;13.468;2022-08-03T13:44:45;1.02;;;0.93;;
29340;SDS011;16337;59.536;13.468;2022-08-03T13:47:10;0.50;;;0.50;;
29340;SDS011;16337;59.536;13.468;2022-08-03T13:49:36;0.77;;;0.77;;
29340;SDS011;16337;59.536;13.468;2022-08-03T13:52:02;3.50;;;1.67;;
29340;SDS011;16337;59.536;13.468;2022-08-03T13:54:28;0.70;;;0.70;;
29340;SDS011;16337;59.536;13.468;2022-08-03T13:56:54;0.45;;;0.45;;
29340;SDS011;16337;59.536;13.468;2022-08-03T13:59:21;1.05;;;0.95;;
29340;SDS011;16337;59.536;13.468;2022-08-03T14:01:47;0.77;;;0.77;;
29340;SDS011;16337;59.536;13.468;2022-08-03T14:04:14;1.02;;;0.88;;
29340;SDS011;16337;59.536;13.468;2022-08-03T14:06:41;0.90;;;0.90;;
29340;SDS011;16337;59.536;13.468;2022-08-03T14:09:09;5.97;;;1.58;;
29340;SDS011;16337;59.536;13.468;2022-08-03T14:11:35;0.60;;;0.60;;
29340;SDS011;16337;59.536;13.468;2022-08-03T14:14:01;0.70;;;0.50;;
29340;SDS011;16337;59.536;13.468;2022-08-03T14:16:27;1.15;;;1.05;;
29340;SDS011;16337;59.536;13.468;2022-08-03T14:18:52;2.47;;;1.40;;
29340;SDS011;16337;59.536;13.468;2022-08-03T14:21:18;1.45;;;1.00;;
29340;SDS011;16337;59.536;13.468;2022-08-03T14:23:44;1.20;;;1.10;;
29340;SDS011;16337;59.536;13.468;2022-08-03T14:26:09;1.17;;;0.93;;
29340;SDS011;16337;59.536;13.468;2022-08-03T14:28:36;0.70;;;0.70;;
29340;SDS011;16337;59.536;13.468;2022-08-03T14:31:02;1.80;;;0.93;;
29340;SDS011;16337;59.536;13.468;2022-08-03T14:33:28;1.05;;;0.88;;
29340;SDS011;16337;59.536;13.468;2022-08-03T14:35:53;1.05;;;0.93;;
29340;SDS011;16337;59.536;13.468;2022-08-03T14:38:19;3.10;;;1.35;;
29340;SDS011;16337;59.536;13.468;2022-08-03T14:40:46;0.85;;;0.85;;
29340;SDS011;16337;59.536;13.468;2022-08-03T14:43:12;2.10;;;1.00;;
29340;SDS011;16337;59.536;13.468;2022-08-03T14:45:39;0.57;;;0.40;;
29340;SDS011;16337;59.536;13.468;2022-08-03T14:48:05;2.15;;;0.90;;
29340;SDS011;16337;59.536;13.468;2022-08-03T14:50:31;1.95;;;1.15;;
29340;SDS011;16337;59.536;13.468;2022-08-03T14:52:57;0.52;;;0.52;;
29340;SDS011;16337;59.536;13.468;2022-08-03T14:55:22;1.10;;;0.82;;
29340;SDS011;16337;59.536;13.468;2022-08-03T14:57:48;1.00;;;0.80;;
29340;SDS011;16337;59.536;13.468;2022-08-03T15:00:14;0.52;;;0.52;;
29340;SDS011;16337;59.536;13.468;2022-08-03T15:02:40;1.23;;;0.77;;
29340;SDS011;16337;59.536;13.468;2022-08-03T15:05:06;0.50;;;0.50;;
29340;SDS011;16337;59.536;13.468;2022-08-03T15:07:32;0.73;;;0.73;;
29340;SDS011;16337;59.536;13.468;2022-08-03T15:09:57;17.52;;;1.50;;
29340;SDS011;16337;59.536;13.468;2022-08-03T15:12:23;0.40;;;0.40;;
29340;SDS011;16337;59.536;13.468;2022-08-03T15:14:50;2.20;;;0.77;;
29340;SDS011;16337;59.536;13.468;2022-08-03T15:17:15;0.57;;;0.52;;
29340;SDS011;16337;59.536;13.468;2022-08-03T15:19:41;1.77;;;0.80;;
29340;SDS011;16337;59.536;13.468;2022-08-03T15:22:07;1.13;;;0.93;;
29340;SDS011;16337;59.536;13.468;2022-08-03T15:24:32;0.60;;;0.60;;
29340;SDS011;16337;59.536;13.468;2022-08-03T15:26:58;1.35;;;0.73;;
29340;SDS011;16337;59.536;13.468;2022-08-03T15:29:24;1.10;;;0.93;;
29340;SDS011;16337;59.536;13.468;2022-08-03T15:31:50;2.28;;;1.75;;
29340;SDS011;16337;59.536;13.468;2022-08-03T15:34:16;34.63;;;11.15;;
29340;SDS011;16337;59.536;13.468;2022-08-03T15:36:42;83.35;;;25.08;;
29340;SDS011;16337;59.536;13.468;2022-08-03T15:39:08;33.03;;;12.55;;
29340;SDS011;16337;59.536;13.468;2022-08-03T15:41:34;27.92;;;9.38;;